Terminal Aerodrome Forecast
Issued by NWS

Current Version | Previous Version | Text Only | Print | Product List | Glossary Off
Versions: 1 2 3 4 5 6 7 8 9 10 11 12 13 14 15 16 17 18 19 20 21

000
FTUS41 KILN 191100
TAFLCK
TAF
KLCK 191130Z 1912/2012 10012G18KT P6SM FEW050 OVC150
     FM191600 10014G26KT 5SM -SHRA OVC050
     FM192200 14016G26KT 5SM -SHRA OVC018
     FM200300 17012G24KT P6SM VCSH OVC020
     FM200500 21012G20KT P6SM VCSH OVC015=

USA.gov is the U.S. government's official web portal to all federal, state and local government web resources and services.